createdAt,value
2023-04-01T00:01:30.689Z,90.34
2023-04-01T00:04:00.302Z,90.49
2023-04-01T00:06:29.628Z,90.45
2023-04-01T00:08:58.608Z,90.03
2023-04-01T00:11:28.524Z,89.80
2023-04-01T00:13:57.419Z,89.76
2023-04-01T00:16:26.466Z,89.50
2023-04-01T00:18:55.511Z,90.17
2023-04-01T00:21:24.890Z,90.00
2023-04-01T00:23:53.819Z,89.87
2023-04-01T00:26:23.194Z,90.00
2023-04-01T00:28:52.359Z,89.73
2023-04-01T00:31:21.826Z,89.87
2023-04-01T00:33:52.697Z,89.68
2023-04-01T00:36:23.074Z,89.92
2023-04-01T00:38:52.806Z,89.72
2023-04-01T00:41:22.693Z,89.70
2023-04-01T00:43:52.578Z,89.82
2023-04-01T00:46:21.568Z,89.76
2023-04-01T00:48:55.075Z,89.79
2023-04-01T00:51:30.707Z,89.56
2023-04-01T00:54:02.916Z,89.72
2023-04-01T00:56:37.869Z,90.18
2023-04-01T00:59:20.109Z,89.82
2023-04-01T01:01:49.232Z,89.82
2023-04-01T01:04:33.981Z,89.49
2023-04-01T01:07:05.706Z,89.83
2023-04-01T01:09:59.380Z,89.76
2023-04-01T01:12:43.420Z,89.79
2023-04-01T01:15:27.080Z,90.25
2023-04-01T01:18:06.424Z,90.14
2023-04-01T01:21:00.180Z,90.13
2023-04-01T01:23:54.217Z,89.95
2023-04-01T01:26:35.593Z,89.29
2023-04-01T01:29:25.883Z,89.60
2023-04-01T01:32:39.639Z,90.13
2023-04-01T01:35:31.702Z,89.72
2023-04-01T01:38:09.614Z,89.77
2023-04-01T01:40:42.222Z,89.93
2023-04-01T01:43:15.283Z,89.83
2023-04-01T01:45:55.893Z,89.69
2023-04-01T01:48:27.748Z,90.01
2023-04-01T01:50:57.247Z,89.70
2023-04-01T01:53:26.527Z,89.58
2023-04-01T01:55:55.524Z,89.64
2023-04-01T01:58:41.781Z,89.62
2023-04-01T02:01:36.564Z,89.68
2023-04-01T02:04:06.485Z,89.60
2023-04-01T02:06:39.494Z,89.81
2023-04-01T02:09:11.883Z,89.90
2023-04-01T02:12:00.420Z,90.14
2023-04-01T02:14:38.357Z,89.95
2023-04-01T02:17:15.611Z,90.09
2023-04-01T02:19:58.027Z,90.16
2023-04-01T02:22:30.630Z,90.24
2023-04-01T02:25:03.823Z,90.66
2023-04-01T02:27:33.139Z,90.07
2023-04-01T02:30:02.224Z,89.69
2023-04-01T02:32:34.678Z,89.87
2023-04-01T02:35:06.967Z,89.75
2023-04-01T02:37:36.844Z,89.47
2023-04-01T02:40:09.559Z,90.05
2023-04-01T02:42:39.583Z,90.03
2023-04-01T02:45:09.707Z,89.93
2023-04-01T02:47:38.640Z,89.83
2023-04-01T02:50:08.994Z,89.84
2023-04-01T02:52:38.034Z,89.85
2023-04-01T02:55:08.171Z,90.17
2023-04-01T02:57:37.076Z,89.87
2023-04-01T03:00:12.143Z,90.18
2023-04-01T03:02:41.211Z,90.38
2023-04-01T03:05:10.200Z,90.04
2023-04-01T03:07:39.698Z,89.93
2023-04-01T03:10:09.149Z,90.23
2023-04-01T03:12:38.181Z,90.15
2023-04-01T03:15:11.208Z,90.66
2023-04-01T03:17:41.175Z,90.39
2023-04-01T03:20:11.881Z,90.32
2023-04-01T03:22:42.852Z,90.12
2023-04-01T03:25:12.467Z,90.26
2023-04-01T03:27:41.772Z,90.41
2023-04-01T03:30:11.114Z,90.50
2023-04-01T03:32:40.254Z,90.45
2023-04-01T03:35:10.814Z,90.38
2023-04-01T03:37:39.809Z,90.67
2023-04-01T03:40:09.831Z,90.19
2023-04-01T03:42:38.857Z,90.06
2023-04-01T03:45:08.329Z,89.86
2023-04-01T03:47:37.301Z,89.59
2023-04-01T03:50:07.940Z,89.75
2023-04-01T03:52:36.962Z,89.97
2023-04-01T03:55:07.115Z,89.99
2023-04-01T03:57:36.112Z,90.07
2023-04-01T04:00:05.581Z,89.97
2023-04-01T04:02:34.587Z,90.34
2023-04-01T04:05:03.837Z,90.19
2023-04-01T04:07:35.166Z,90.10
2023-04-01T04:10:04.858Z,89.97
2023-04-01T04:12:33.812Z,89.85
2023-04-01T04:15:02.742Z,89.45
2023-04-01T04:17:31.678Z,89.42
2023-04-01T04:20:00.796Z,89.29
2023-04-01T04:22:29.751Z,89.47
2023-04-01T04:24:58.638Z,89.64
2023-04-01T04:27:27.508Z,89.71
2023-04-01T04:29:56.407Z,89.40
2023-04-01T04:32:25.579Z,89.67
2023-04-01T04:34:54.489Z,89.66
2023-04-01T04:37:23.587Z,89.92
2023-04-01T04:39:52.926Z,89.93
2023-04-01T04:42:21.833Z,89.83
2023-04-01T04:44:50.731Z,89.58
2023-04-01T04:47:19.702Z,89.76
2023-04-01T04:49:48.614Z,89.57
2023-04-01T04:52:17.515Z,89.12
2023-04-01T04:54:46.453Z,89.46
2023-04-01T04:57:15.679Z,89.47
2023-04-01T04:59:44.582Z,89.47
2023-04-01T05:02:13.735Z,89.42
2023-04-01T05:04:42.849Z,89.28
2023-04-01T05:07:12.435Z,89.20
2023-04-01T05:09:41.717Z,89.67
2023-04-01T05:12:10.721Z,89.47
2023-04-01T05:14:40.356Z,89.33
2023-04-01T05:17:11.815Z,89.25
2023-04-01T05:19:41.201Z,88.92
2023-04-01T05:22:10.110Z,89.09
2023-04-01T05:24:39.012Z,89.02
2023-04-01T05:27:07.910Z,89.23
2023-04-01T05:29:36.866Z,89.30
2023-04-01T05:32:05.741Z,89.67
2023-04-01T05:34:34.694Z,89.06
2023-04-01T05:37:03.586Z,88.77
2023-04-01T05:39:32.465Z,89.24
2023-04-01T05:42:01.369Z,88.61
2023-04-01T05:44:30.362Z,88.20
2023-04-01T05:46:59.225Z,88.66
2023-04-01T05:49:28.924Z,88.48
2023-04-01T05:51:58.291Z,88.31
2023-04-01T05:54:27.227Z,88.55
2023-04-01T05:56:56.180Z,88.66
2023-04-01T05:59:25.099Z,88.35
2023-04-01T06:01:54.190Z,88.27
2023-04-01T06:04:23.372Z,88.49
2023-04-01T06:06:52.964Z,88.38
2023-04-01T06:09:31.400Z,88.03
2023-04-01T06:12:06.343Z,88.43
2023-04-01T06:14:47.589Z,88.43
2023-04-01T06:17:31.512Z,88.23
2023-04-01T06:20:22.250Z,88.27
2023-04-01T06:23:03.267Z,89.02
2023-04-01T06:25:50.563Z,88.16
2023-04-01T06:28:38.301Z,88.35
2023-04-01T06:31:27.440Z,88.95
2023-04-01T06:34:11.707Z,89.00
2023-04-01T06:36:48.932Z,89.52
2023-04-01T06:39:31.542Z,88.98
2023-04-01T06:42:15.485Z,88.98
2023-04-01T06:44:51.344Z,88.44
2023-04-01T06:47:32.345Z,88.46
2023-04-01T06:50:10.342Z,88.53
2023-04-01T06:53:02.476Z,89.06
2023-04-01T06:55:56.907Z,89.25
2023-04-01T06:58:41.371Z,88.51
2023-04-01T07:01:23.918Z,88.07
2023-04-01T07:03:56.613Z,88.07
2023-04-01T07:06:33.726Z,88.34
2023-04-01T07:09:11.244Z,88.38
2023-04-01T07:11:41.514Z,88.97
2023-04-01T07:14:29.883Z,87.95
2023-04-01T07:17:12.614Z,88.85
2023-04-01T07:19:46.093Z,88.87
2023-04-01T07:22:37.814Z,89.08
2023-04-01T07:25:17.816Z,89.42
2023-04-01T07:27:47.063Z,89.00
2023-04-01T07:30:18.315Z,88.65
2023-04-01T07:33:01.750Z,88.65
2023-04-01T07:35:36.998Z,88.69
2023-04-01T07:38:23.589Z,88.46
2023-04-01T07:40:55.242Z,88.28
2023-04-01T07:43:39.244Z,88.30
2023-04-01T07:46:24.857Z,88.55
2023-04-01T07:48:53.732Z,87.79
2023-04-01T07:51:37.470Z,88.12
2023-04-01T07:54:18.774Z,88.46
2023-04-01T07:56:54.160Z,88.05
2023-04-01T07:59:35.285Z,88.43
2023-04-01T08:02:32.224Z,88.52
2023-04-01T08:05:19.404Z,88.04
2023-04-01T08:07:57.868Z,87.98
2023-04-01T08:10:53.492Z,88.73
2023-04-01T08:13:40.553Z,88.92
2023-04-01T08:16:20.619Z,88.42
2023-04-01T08:18:55.552Z,88.33
2023-04-01T08:21:50.123Z,88.04
2023-04-01T08:24:47.571Z,88.06
2023-04-01T08:27:26.080Z,87.94
2023-04-01T08:30:16.032Z,88.08
2023-04-01T08:32:51.017Z,88.27
2023-04-01T08:35:43.368Z,88.36
2023-04-01T08:38:19.088Z,87.78
2023-04-01T08:40:50.975Z,88.05
2023-04-01T08:43:29.172Z,87.89
2023-04-01T08:46:04.537Z,87.23
2023-04-01T08:48:36.432Z,86.80
2023-04-01T08:51:17.797Z,86.27
2023-04-01T08:54:01.782Z,85.56
2023-04-01T08:56:36.780Z,86.04
2023-04-01T08:59:41.507Z,85.33
2023-04-01T09:02:32.461Z,85.08
2023-04-01T09:05:12.532Z,84.92
2023-04-01T09:07:54.956Z,84.43
2023-04-01T09:10:45.689Z,83.75
2023-04-01T09:13:28.037Z,84.32
2023-04-01T09:16:30.835Z,84.89
2023-04-01T09:19:18.072Z,84.71
2023-04-01T09:22:11.529Z,84.30
2023-04-01T09:25:01.997Z,84.47
2023-04-01T09:27:38.362Z,84.51
2023-04-01T09:30:20.308Z,84.26
2023-04-01T09:33:24.623Z,84.35
2023-04-01T09:36:12.440Z,84.32
2023-04-01T09:38:50.195Z,84.34
2023-04-01T09:41:41.648Z,84.53
2023-04-01T09:44:24.759Z,84.59
2023-04-01T09:47:18.245Z,84.77
2023-04-01T09:50:07.832Z,85.25
2023-04-01T09:52:53.318Z,85.71
2023-04-01T09:55:59.636Z,85.21
2023-04-01T09:58:46.781Z,85.27
2023-04-01T10:01:32.430Z,84.97
2023-04-01T10:04:43.352Z,84.16
2023-04-01T10:07:15.009Z,84.42
2023-04-01T10:10:06.660Z,84.35
2023-04-01T10:12:50.596Z,84.81
2023-04-01T10:15:25.586Z,84.83
2023-04-01T10:18:16.370Z,84.94
2023-04-01T10:21:24.720Z,84.82
2023-04-01T10:24:18.443Z,84.56
2023-04-01T10:26:55.542Z,84.07
2023-04-01T10:29:56.634Z,84.15
2023-04-01T10:32:57.003Z,84.29
2023-04-01T10:35:44.905Z,84.48
2023-04-01T10:38:26.902Z,84.18
2023-04-01T10:41:02.929Z,84.73
2023-04-01T10:43:51.061Z,84.28
2023-04-01T10:46:38.265Z,83.51
2023-04-01T10:49:36.470Z,83.81
2023-04-01T10:52:28.918Z,84.22
2023-04-01T10:55:19.623Z,84.83
2023-04-01T10:57:54.694Z,84.95
2023-04-01T11:00:35.587Z,85.10
2023-04-01T11:03:07.482Z,84.72
2023-04-01T11:05:52.183Z,84.61
2023-04-01T11:08:43.696Z,84.78
2023-04-01T11:11:24.850Z,84.89
2023-04-01T11:14:27.844Z,84.66
2023-04-01T11:17:32.114Z,85.06
2023-04-01T11:20:12.909Z,84.39
2023-04-01T11:22:51.121Z,84.01
2023-04-01T11:25:53.987Z,83.49
2023-04-01T11:28:37.928Z,82.88
2023-04-01T11:31:34.225Z,82.97
2023-04-01T11:34:30.821Z,83.04
2023-04-01T11:37:24.361Z,82.98
2023-04-01T11:40:30.240Z,82.96
2023-04-01T11:43:17.263Z,82.56
2023-04-01T11:46:18.485Z,82.63
2023-04-01T11:48:54.284Z,82.98
2023-04-01T11:51:38.092Z,83.15
2023-04-01T11:54:45.771Z,83.17
2023-04-01T11:57:26.982Z,83.10
2023-04-01T12:00:13.436Z,83.33
2023-04-01T12:03:15.702Z,83.89
2023-04-01T12:05:59.636Z,83.67
2023-04-01T12:08:58.035Z,83.21
2023-04-01T12:12:10.070Z,83.47
2023-04-01T12:15:17.215Z,83.96
2023-04-01T12:18:04.490Z,83.65
2023-04-01T12:21:07.075Z,83.67
2023-04-01T12:23:57.570Z,83.84
2023-04-01T12:26:32.007Z,83.65
2023-04-01T12:29:29.962Z,82.67
2023-04-01T12:32:01.610Z,82.83
2023-04-01T12:34:42.598Z,82.67
2023-04-01T12:37:19.006Z,82.69
2023-04-01T12:39:59.841Z,82.66
2023-04-01T12:42:53.120Z,82.27
2023-04-01T12:45:35.522Z,82.21
2023-04-01T12:48:18.930Z,82.21
2023-04-01T12:50:57.949Z,81.38
2023-04-01T12:53:37.659Z,81.75
2023-04-01T12:56:15.874Z,81.78
2023-04-01T12:59:21.788Z,82.77
2023-04-01T13:02:06.546Z,82.78
2023-04-01T13:05:13.813Z,82.74
2023-04-01T13:08:20.616Z,82.51
2023-04-01T13:11:08.614Z,82.61
2023-04-01T13:13:48.462Z,82.68
2023-04-01T13:16:37.403Z,83.41
2023-04-01T13:19:34.034Z,83.74
2023-04-01T13:22:11.865Z,83.62
2023-04-01T13:25:01.604Z,83.93
2023-04-01T13:27:42.384Z,83.84
2023-04-01T13:30:40.746Z,83.88
2023-04-01T13:33:47.987Z,83.59
2023-04-01T13:36:39.094Z,83.27
2023-04-01T13:39:26.566Z,83.03
2023-04-01T13:42:04.703Z,82.51
2023-04-01T13:44:33.561Z,82.61
2023-04-01T13:47:47.633Z,82.73
2023-04-01T13:50:35.427Z,81.43
2023-04-01T13:53:23.345Z,81.44
2023-04-01T13:56:17.705Z,81.73
2023-04-01T13:59:01.785Z,81.62
2023-04-01T14:01:48.998Z,81.97
2023-04-01T14:04:43.758Z,82.15
2023-04-01T14:07:24.554Z,81.20
2023-04-01T14:09:59.070Z,81.29
2023-04-01T14:12:41.209Z,80.59
2023-04-01T14:15:24.514Z,80.66
2023-04-01T14:18:02.499Z,80.57
2023-04-01T14:20:56.142Z,80.45
2023-04-01T14:23:39.051Z,79.47
2023-04-01T14:26:22.761Z,79.30
2023-04-01T14:29:13.554Z,79.82
2023-04-01T14:32:04.089Z,79.66
2023-04-01T14:34:46.211Z,79.91
2023-04-01T14:37:44.102Z,80.80
2023-04-01T14:40:46.026Z,80.33
2023-04-01T14:43:26.876Z,80.58
2023-04-01T14:46:18.014Z,80.60
2023-04-01T14:49:05.406Z,79.39
2023-04-01T14:51:40.595Z,80.29
2023-04-01T14:54:09.440Z,80.03
2023-04-01T14:56:48.904Z,80.36
2023-04-01T14:59:23.900Z,80.00
2023-04-01T15:01:58.690Z,80.52
2023-04-01T15:04:51.525Z,80.31
2023-04-01T15:07:54.814Z,80.31
2023-04-01T15:10:36.091Z,80.25
2023-04-01T15:13:47.207Z,80.31
2023-04-01T15:16:16.185Z,81.19
2023-04-01T15:19:09.032Z,81.08
2023-04-01T15:21:53.501Z,80.88
2023-04-01T15:24:30.466Z,81.27
2023-04-01T15:27:14.709Z,80.92
2023-04-01T15:30:14.786Z,80.22
2023-04-01T15:33:11.804Z,80.24
2023-04-01T15:35:46.711Z,80.46
2023-04-01T15:38:16.452Z,80.70
2023-04-01T15:40:52.645Z,80.94
2023-04-01T15:43:33.575Z,80.97
2023-04-01T15:46:17.505Z,80.25
2023-04-01T15:48:52.106Z,80.24
2023-04-01T15:51:45.034Z,80.42
2023-04-01T15:54:14.099Z,80.15
2023-04-01T15:56:57.532Z,80.65
2023-04-01T15:59:51.168Z,80.26
2023-04-01T16:02:31.479Z,80.95
2023-04-01T16:05:07.216Z,80.83
2023-04-01T16:08:07.154Z,80.64
2023-04-01T16:10:54.318Z,80.34
2023-04-01T16:13:29.101Z,81.51
2023-04-01T16:15:58.093Z,80.96
2023-04-01T16:18:43.918Z,80.18
2023-04-01T16:21:23.399Z,80.40
2023-04-01T16:24:39.344Z,80.81
2023-04-01T16:27:23.623Z,80.25
2023-04-01T16:30:21.290Z,80.39
2023-04-01T16:33:06.396Z,80.61
2023-04-01T16:35:50.525Z,81.10
2023-04-01T16:38:33.760Z,80.54
2023-04-01T16:42:00.849Z,81.25
2023-04-01T16:44:31.020Z,80.99
2023-04-01T16:47:09.623Z,80.49
2023-04-01T16:49:56.642Z,81.23
2023-04-01T16:53:01.026Z,81.43
2023-04-01T16:55:42.829Z,80.67
2023-04-01T16:58:21.253Z,80.13
2023-04-01T17:00:56.625Z,79.58
2023-04-01T17:03:44.910Z,80.05
2023-04-01T17:06:44.146Z,79.91
2023-04-01T17:10:01.412Z,80.40
2023-04-01T17:12:36.061Z,80.67
2023-04-01T17:15:32.722Z,80.79
2023-04-01T17:18:38.161Z,81.33
2023-04-01T17:21:26.674Z,80.43
2023-04-01T17:24:25.615Z,80.27
2023-04-01T17:27:12.518Z,80.26
2023-04-01T17:30:05.536Z,79.76
2023-04-01T17:32:37.774Z,79.83
2023-04-01T17:35:23.745Z,79.50
2023-04-01T17:38:34.416Z,79.35
2023-04-01T17:41:47.720Z,79.21
2023-04-01T17:44:29.304Z,79.34
2023-04-01T17:47:23.678Z,79.37
2023-04-01T17:50:22.510Z,79.17
2023-04-01T17:52:51.321Z,79.05
2023-04-01T17:55:38.141Z,78.95
2023-04-01T17:58:23.883Z,78.80
2023-04-01T18:01:41.356Z,79.34
2023-04-01T18:04:23.583Z,79.50
2023-04-01T18:07:08.651Z,79.49
2023-04-01T18:09:40.516Z,79.51
2023-04-01T18:12:27.797Z,79.59
2023-04-01T18:15:14.985Z,79.50
2023-04-01T18:18:10.489Z,79.44
2023-04-01T18:20:51.690Z,79.44
2023-04-01T18:24:02.403Z,79.31
2023-04-01T18:26:38.282Z,79.23
2023-04-01T18:29:38.424Z,79.26
2023-04-01T18:32:27.704Z,79.01
2023-04-01T18:35:03.628Z,79.02
2023-04-01T18:38:04.494Z,78.99
2023-04-01T18:40:37.878Z,79.48
2023-04-01T18:43:17.375Z,79.21
2023-04-01T18:46:00.954Z,79.58
2023-04-01T18:48:35.498Z,79.50
2023-04-01T18:51:11.576Z,79.04
2023-04-01T18:53:42.796Z,78.90
2023-04-01T18:56:16.403Z,78.66
2023-04-01T18:59:00.344Z,78.78
2023-04-01T19:01:39.273Z,78.93
2023-04-01T19:04:42.804Z,79.31
2023-04-01T19:07:29.742Z,79.25
2023-04-01T19:10:13.702Z,79.17
2023-04-01T19:13:30.777Z,79.71
2023-04-01T19:16:12.170Z,79.23
2023-04-01T19:18:56.411Z,78.82
2023-04-01T19:21:44.427Z,78.85
2023-04-01T19:24:25.307Z,78.57
2023-04-01T19:27:13.201Z,78.37
2023-04-01T19:30:13.151Z,78.58
2023-04-01T19:33:02.639Z,78.60
2023-04-01T19:35:45.703Z,78.76
2023-04-01T19:38:41.219Z,78.68
2023-04-01T19:41:23.030Z,78.58
2023-04-01T19:44:19.268Z,78.69
2023-04-01T19:46:56.302Z,78.94
2023-04-01T19:50:10.053Z,78.86
2023-04-01T19:52:42.227Z,78.68
2023-04-01T19:55:11.072Z,79.00
2023-04-01T19:57:57.917Z,79.29
2023-04-01T20:00:38.935Z,79.59
2023-04-01T20:03:42.056Z,79.68
2023-04-01T20:06:20.167Z,79.63
2023-04-01T20:09:24.215Z,79.61
2023-04-01T20:12:37.767Z,79.32
2023-04-01T20:15:36.415Z,79.53
2023-04-01T20:18:14.876Z,80.05
2023-04-01T20:20:55.932Z,80.50
2023-04-01T20:23:42.738Z,80.50
2023-04-01T20:26:14.041Z,80.54
2023-04-01T20:28:42.878Z,80.47
2023-04-01T20:31:30.617Z,80.43
2023-04-01T20:34:25.388Z,80.82
2023-04-01T20:37:23.017Z,81.35
2023-04-01T20:40:03.122Z,81.73
2023-04-01T20:42:44.318Z,81.91
2023-04-01T20:45:47.081Z,82.18
2023-04-01T20:48:37.574Z,82.10
2023-04-01T20:51:13.363Z,81.68
2023-04-01T20:53:55.427Z,81.88
2023-04-01T20:56:41.647Z,82.23
2023-04-01T20:59:16.332Z,81.77
2023-04-01T21:02:10.356Z,81.99
2023-04-01T21:05:31.053Z,82.63
2023-04-01T21:08:18.231Z,82.08
2023-04-01T21:11:16.964Z,82.31
2023-04-01T21:14:02.861Z,82.81
2023-04-01T21:16:54.185Z,83.10
2023-04-01T21:19:35.186Z,82.90
2023-04-01T21:22:13.151Z,83.25
2023-04-01T21:25:04.341Z,83.27
2023-04-01T21:27:39.102Z,82.69
2023-04-01T21:30:16.961Z,82.82
2023-04-01T21:33:07.405Z,82.91
2023-04-01T21:35:51.137Z,83.76
2023-04-01T21:38:32.231Z,83.45
2023-04-01T21:41:17.456Z,83.11
2023-04-01T21:44:01.500Z,83.29
2023-04-01T21:46:56.698Z,83.41
2023-04-01T21:49:28.600Z,83.44
2023-04-01T21:52:11.894Z,83.38
2023-04-01T21:54:44.352Z,83.95
2023-04-01T21:57:25.527Z,83.88
2023-04-01T22:00:14.381Z,84.02
2023-04-01T22:03:20.137Z,83.73
2023-04-01T22:06:07.483Z,83.75
2023-04-01T22:08:39.878Z,83.63
2023-04-01T22:11:33.456Z,84.17
2023-04-01T22:14:11.704Z,84.14
2023-04-01T22:16:52.932Z,84.01
2023-04-01T22:19:40.874Z,83.94
2023-04-01T22:22:18.671Z,84.36
2023-04-01T22:24:56.780Z,84.18
2023-04-01T22:27:34.775Z,84.59
2023-04-01T22:30:12.835Z,84.53
2023-04-01T22:32:48.054Z,83.98
2023-04-01T22:35:19.655Z,83.42
2023-04-01T22:37:51.698Z,83.55
2023-04-01T22:40:52.656Z,83.66
2023-04-01T22:43:42.820Z,83.88
2023-04-01T22:46:17.810Z,83.95
2023-04-01T22:49:10.745Z,83.87
2023-04-01T22:51:48.898Z,83.45
2023-04-01T22:54:36.267Z,82.65
2023-04-01T22:57:13.293Z,82.79
2023-04-01T23:00:01.783Z,82.94
2023-04-01T23:03:05.886Z,82.55
2023-04-01T23:05:42.006Z,82.56
2023-04-01T23:08:29.596Z,83.02
2023-04-01T23:11:06.183Z,82.76
2023-04-01T23:13:49.467Z,82.23
2023-04-01T23:16:24.810Z,82.96
2023-04-01T23:19:06.311Z,83.39
2023-04-01T23:21:53.312Z,83.37
2023-04-01T23:24:48.888Z,83.03
2023-04-01T23:27:26.819Z,82.44
2023-04-01T23:29:55.949Z,81.90
2023-04-01T23:32:27.475Z,81.64
2023-04-01T23:34:59.548Z,81.34
2023-04-01T23:37:28.565Z,81.45
2023-04-01T23:39:59.576Z,81.63
2023-04-01T23:42:32.349Z,81.98
2023-04-01T23:45:18.235Z,81.63
2023-04-01T23:47:50.583Z,81.23
2023-04-01T23:50:23.440Z,80.80
2023-04-01T23:53:12.809Z,81.02
2023-04-01T23:55:43.031Z,81.10
2023-04-01T23:58:27.423Z,81.44
